sensor_id;sensor_type;location;lat;lon;timestamp;P1;durP1;ratioP1;P2;durP2;ratioP2
16320;SDS011;8269;50.990;4.494;2023-07-13T00:01:13;5.65;;;1.55;;
16320;SDS011;8269;50.990;4.494;2023-07-13T00:03:40;6.93;;;1.70;;
16320;SDS011;8269;50.990;4.494;2023-07-13T00:06:06;7.88;;;2.50;;
16320;SDS011;8269;50.990;4.494;2023-07-13T00:08:32;5.90;;;2.20;;
16320;SDS011;8269;50.990;4.494;2023-07-13T00:10:59;7.05;;;1.70;;
16320;SDS011;8269;50.990;4.494;2023-07-13T00:13:25;5.88;;;1.80;;
16320;SDS011;8269;50.990;4.494;2023-07-13T00:15:51;7.30;;;1.83;;
16320;SDS011;8269;50.990;4.494;2023-07-13T00:18:19;5.65;;;1.88;;
16320;SDS011;8269;50.990;4.494;2023-07-13T00:20:45;7.15;;;1.80;;
16320;SDS011;8269;50.990;4.494;2023-07-13T00:23:11;6.53;;;1.88;;
16320;SDS011;8269;50.990;4.494;2023-07-13T00:25:37;7.05;;;2.15;;
16320;SDS011;8269;50.990;4.494;2023-07-13T00:28:03;6.65;;;2.08;;
16320;SDS011;8269;50.990;4.494;2023-07-13T00:30:29;7.68;;;2.10;;
16320;SDS011;8269;50.990;4.494;2023-07-13T00:32:55;6.03;;;2.05;;
16320;SDS011;8269;50.990;4.494;2023-07-13T00:35:21;6.00;;;2.40;;
16320;SDS011;8269;50.990;4.494;2023-07-13T00:37:48;6.75;;;2.20;;
16320;SDS011;8269;50.990;4.494;2023-07-13T00:40:14;8.27;;;1.98;;
16320;SDS011;8269;50.990;4.494;2023-07-13T00:42:41;5.85;;;1.77;;
16320;SDS011;8269;50.990;4.494;2023-07-13T00:47:39;6.75;;;2.33;;
16320;SDS011;8269;50.990;4.494;2023-07-13T00:50:06;3.90;;;1.90;;
16320;SDS011;8269;50.990;4.494;2023-07-13T00:52:33;6.75;;;2.38;;
16320;SDS011;8269;50.990;4.494;2023-07-13T00:55:01;6.53;;;1.90;;
16320;SDS011;8269;50.990;4.494;2023-07-13T00:57:28;9.32;;;2.20;;
16320;SDS011;8269;50.990;4.494;2023-07-13T00:59:55;8.65;;;2.10;;
16320;SDS011;8269;50.990;4.494;2023-07-13T01:02:22;7.15;;;2.30;;
16320;SDS011;8269;50.990;4.494;2023-07-13T01:04:48;9.02;;;1.95;;
16320;SDS011;8269;50.990;4.494;2023-07-13T01:07:14;6.15;;;2.13;;
16320;SDS011;8269;50.990;4.494;2023-07-13T01:09:40;6.07;;;1.98;;
16320;SDS011;8269;50.990;4.494;2023-07-13T01:12:06;6.68;;;2.25;;
16320;SDS011;8269;50.990;4.494;2023-07-13T01:14:33;6.68;;;2.03;;
16320;SDS011;8269;50.990;4.494;2023-07-13T01:16:59;6.70;;;1.92;;
16320;SDS011;8269;50.990;4.494;2023-07-13T01:22:05;6.40;;;2.30;;
16320;SDS011;8269;50.990;4.494;2023-07-13T01:24:33;8.55;;;2.70;;
16320;SDS011;8269;50.990;4.494;2023-07-13T01:26:59;7.03;;;2.55;;
16320;SDS011;8269;50.990;4.494;2023-07-13T01:29:25;6.82;;;2.00;;
16320;SDS011;8269;50.990;4.494;2023-07-13T01:31:51;8.90;;;2.35;;
16320;SDS011;8269;50.990;4.494;2023-07-13T01:34:17;7.88;;;2.00;;
16320;SDS011;8269;50.990;4.494;2023-07-13T01:36:43;9.07;;;2.47;;
16320;SDS011;8269;50.990;4.494;2023-07-13T01:39:09;7.55;;;2.50;;
16320;SDS011;8269;50.990;4.494;2023-07-13T01:41:36;10.55;;;2.75;;
16320;SDS011;8269;50.990;4.494;2023-07-13T01:44:02;9.73;;;2.70;;
16320;SDS011;8269;50.990;4.494;2023-07-13T01:46:28;8.35;;;2.75;;
16320;SDS011;8269;50.990;4.494;2023-07-13T01:48:54;8.05;;;2.42;;
16320;SDS011;8269;50.990;4.494;2023-07-13T01:51:20;5.80;;;1.92;;
16320;SDS011;8269;50.990;4.494;2023-07-13T01:53:46;8.73;;;2.50;;
16320;SDS011;8269;50.990;4.494;2023-07-13T01:56:12;12.45;;;2.40;;
16320;SDS011;8269;50.990;4.494;2023-07-13T01:58:38;6.25;;;2.50;;
16320;SDS011;8269;50.990;4.494;2023-07-13T02:01:04;8.30;;;2.70;;
16320;SDS011;8269;50.990;4.494;2023-07-13T02:03:30;9.57;;;2.60;;
16320;SDS011;8269;50.990;4.494;2023-07-13T02:05:56;8.32;;;2.33;;
16320;SDS011;8269;50.990;4.494;2023-07-13T02:08:22;7.57;;;2.30;;
16320;SDS011;8269;50.990;4.494;2023-07-13T02:10:48;7.93;;;2.20;;
16320;SDS011;8269;50.990;4.494;2023-07-13T02:13:14;8.88;;;2.35;;
16320;SDS011;8269;50.990;4.494;2023-07-13T02:15:40;8.95;;;3.00;;
16320;SDS011;8269;50.990;4.494;2023-07-13T02:18:07;6.75;;;2.30;;
16320;SDS011;8269;50.990;4.494;2023-07-13T02:20:33;11.38;;;2.78;;
16320;SDS011;8269;50.990;4.494;2023-07-13T02:22:59;10.48;;;2.50;;
16320;SDS011;8269;50.990;4.494;2023-07-13T02:25:25;6.25;;;2.60;;
16320;SDS011;8269;50.990;4.494;2023-07-13T02:27:51;6.47;;;2.40;;
16320;SDS011;8269;50.990;4.494;2023-07-13T02:30:18;7.20;;;2.45;;
16320;SDS011;8269;50.990;4.494;2023-07-13T02:32:44;11.68;;;3.03;;
16320;SDS011;8269;50.990;4.494;2023-07-13T02:35:10;11.35;;;2.83;;
16320;SDS011;8269;50.990;4.494;2023-07-13T02:37:36;8.38;;;2.40;;
16320;SDS011;8269;50.990;4.494;2023-07-13T02:40:02;12.65;;;2.78;;
16320;SDS011;8269;50.990;4.494;2023-07-13T02:42:33;7.20;;;2.50;;
16320;SDS011;8269;50.990;4.494;2023-07-13T02:44:59;8.13;;;3.10;;
16320;SDS011;8269;50.990;4.494;2023-07-13T02:47:25;6.90;;;2.65;;
16320;SDS011;8269;50.990;4.494;2023-07-13T02:49:51;6.75;;;2.50;;
16320;SDS011;8269;50.990;4.494;2023-07-13T02:52:17;7.38;;;2.40;;
16320;SDS011;8269;50.990;4.494;2023-07-13T02:54:43;7.97;;;2.78;;
16320;SDS011;8269;50.990;4.494;2023-07-13T02:57:09;8.27;;;2.65;;
16320;SDS011;8269;50.990;4.494;2023-07-13T02:59:36;8.50;;;2.40;;
16320;SDS011;8269;50.990;4.494;2023-07-13T03:02:02;8.18;;;2.47;;
16320;SDS011;8269;50.990;4.494;2023-07-13T03:04:28;8.10;;;2.50;;
16320;SDS011;8269;50.990;4.494;2023-07-13T03:06:54;9.98;;;2.40;;
16320;SDS011;8269;50.990;4.494;2023-07-13T03:09:23;6.68;;;2.17;;
16320;SDS011;8269;50.990;4.494;2023-07-13T03:11:49;9.05;;;2.78;;
16320;SDS011;8269;50.990;4.494;2023-07-13T03:14:15;9.10;;;2.67;;
16320;SDS011;8269;50.990;4.494;2023-07-13T03:16:41;9.23;;;2.65;;
16320;SDS011;8269;50.990;4.494;2023-07-13T03:19:07;9.20;;;2.45;;
16320;SDS011;8269;50.990;4.494;2023-07-13T03:21:33;10.25;;;3.05;;
16320;SDS011;8269;50.990;4.494;2023-07-13T03:23:59;9.45;;;2.40;;
16320;SDS011;8269;50.990;4.494;2023-07-13T03:26:25;8.35;;;2.70;;
16320;SDS011;8269;50.990;4.494;2023-07-13T03:28:51;12.00;;;2.80;;
16320;SDS011;8269;50.990;4.494;2023-07-13T03:31:18;11.85;;;3.13;;
16320;SDS011;8269;50.990;4.494;2023-07-13T03:33:45;9.18;;;2.47;;
16320;SDS011;8269;50.990;4.494;2023-07-13T03:36:13;8.93;;;2.70;;
16320;SDS011;8269;50.990;4.494;2023-07-13T03:38:41;11.63;;;2.95;;
16320;SDS011;8269;50.990;4.494;2023-07-13T03:41:07;11.88;;;3.00;;
16320;SDS011;8269;50.990;4.494;2023-07-13T03:43:33;7.00;;;2.65;;
16320;SDS011;8269;50.990;4.494;2023-07-13T03:45:59;11.63;;;3.05;;
16320;SDS011;8269;50.990;4.494;2023-07-13T03:48:25;10.80;;;3.03;;
16320;SDS011;8269;50.990;4.494;2023-07-13T03:50:51;11.88;;;2.97;;
16320;SDS011;8269;50.990;4.494;2023-07-13T03:53:17;6.95;;;2.83;;
16320;SDS011;8269;50.990;4.494;2023-07-13T03:55:44;13.07;;;2.90;;
16320;SDS011;8269;50.990;4.494;2023-07-13T03:58:23;14.57;;;3.28;;
16320;SDS011;8269;50.990;4.494;2023-07-13T04:00:49;9.13;;;3.10;;
16320;SDS011;8269;50.990;4.494;2023-07-13T04:03:15;11.85;;;3.42;;
16320;SDS011;8269;50.990;4.494;2023-07-13T04:05:41;5.43;;;2.72;;
16320;SDS011;8269;50.990;4.494;2023-07-13T04:08:07;10.18;;;2.67;;
16320;SDS011;8269;50.990;4.494;2023-07-13T04:10:33;11.13;;;2.97;;
16320;SDS011;8269;50.990;4.494;2023-07-13T04:12:59;9.27;;;2.80;;
16320;SDS011;8269;50.990;4.494;2023-07-13T04:15:26;8.98;;;2.60;;
16320;SDS011;8269;50.990;4.494;2023-07-13T04:17:52;9.63;;;2.78;;
16320;SDS011;8269;50.990;4.494;2023-07-13T04:20:19;8.77;;;2.95;;
16320;SDS011;8269;50.990;4.494;2023-07-13T04:22:45;8.35;;;2.83;;
16320;SDS011;8269;50.990;4.494;2023-07-13T04:25:11;9.45;;;2.92;;
16320;SDS011;8269;50.990;4.494;2023-07-13T04:27:37;10.25;;;3.00;;
16320;SDS011;8269;50.990;4.494;2023-07-13T04:30:04;12.07;;;3.05;;
16320;SDS011;8269;50.990;4.494;2023-07-13T04:32:31;8.63;;;2.95;;
16320;SDS011;8269;50.990;4.494;2023-07-13T04:34:57;10.75;;;3.10;;
16320;SDS011;8269;50.990;4.494;2023-07-13T04:37:24;11.93;;;3.65;;
16320;SDS011;8269;50.990;4.494;2023-07-13T04:39:51;12.05;;;3.28;;
16320;SDS011;8269;50.990;4.494;2023-07-13T04:42:17;8.75;;;2.60;;
16320;SDS011;8269;50.990;4.494;2023-07-13T04:44:49;11.75;;;3.72;;
16320;SDS011;8269;50.990;4.494;2023-07-13T04:47:15;17.67;;;3.33;;
16320;SDS011;8269;50.990;4.494;2023-07-13T04:49:42;11.82;;;3.42;;
16320;SDS011;8269;50.990;4.494;2023-07-13T04:52:08;9.80;;;3.15;;
16320;SDS011;8269;50.990;4.494;2023-07-13T04:54:34;10.85;;;3.03;;
16320;SDS011;8269;50.990;4.494;2023-07-13T04:57:00;10.98;;;3.28;;
16320;SDS011;8269;50.990;4.494;2023-07-13T04:59:26;10.80;;;3.05;;
16320;SDS011;8269;50.990;4.494;2023-07-13T05:01:52;12.30;;;3.38;;
16320;SDS011;8269;50.990;4.494;2023-07-13T05:04:19;11.63;;;3.22;;
16320;SDS011;8269;50.990;4.494;2023-07-13T05:06:45;7.40;;;3.08;;
16320;SDS011;8269;50.990;4.494;2023-07-13T05:09:11;7.70;;;2.88;;
16320;SDS011;8269;50.990;4.494;2023-07-13T05:11:37;9.13;;;2.97;;
16320;SDS011;8269;50.990;4.494;2023-07-13T05:14:04;16.90;;;3.28;;
16320;SDS011;8269;50.990;4.494;2023-07-13T05:16:30;9.38;;;3.17;;
16320;SDS011;8269;50.990;4.494;2023-07-13T05:18:57;8.43;;;3.20;;
16320;SDS011;8269;50.990;4.494;2023-07-13T05:21:23;10.82;;;3.22;;
16320;SDS011;8269;50.990;4.494;2023-07-13T05:23:49;10.45;;;3.50;;
16320;SDS011;8269;50.990;4.494;2023-07-13T05:26:15;9.32;;;3.30;;
16320;SDS011;8269;50.990;4.494;2023-07-13T05:28:42;13.25;;;3.47;;
16320;SDS011;8269;50.990;4.494;2023-07-13T05:31:08;19.88;;;4.50;;
16320;SDS011;8269;50.990;4.494;2023-07-13T05:33:35;12.75;;;3.50;;
16320;SDS011;8269;50.990;4.494;2023-07-13T05:36:01;12.65;;;3.17;;
16320;SDS011;8269;50.990;4.494;2023-07-13T05:38:27;10.77;;;4.03;;
16320;SDS011;8269;50.990;4.494;2023-07-13T05:40:54;11.05;;;3.50;;
16320;SDS011;8269;50.990;4.494;2023-07-13T05:43:21;10.82;;;3.60;;
16320;SDS011;8269;50.990;4.494;2023-07-13T05:45:47;11.52;;;4.20;;
16320;SDS011;8269;50.990;4.494;2023-07-13T05:48:13;11.88;;;3.42;;
16320;SDS011;8269;50.990;4.494;2023-07-13T05:50:40;12.25;;;3.53;;
16320;SDS011;8269;50.990;4.494;2023-07-13T05:53:06;14.18;;;3.33;;
16320;SDS011;8269;50.990;4.494;2023-07-13T05:55:32;12.13;;;3.53;;
16320;SDS011;8269;50.990;4.494;2023-07-13T05:57:59;14.63;;;4.43;;
16320;SDS011;8269;50.990;4.494;2023-07-13T06:00:25;11.15;;;3.33;;
16320;SDS011;8269;50.990;4.494;2023-07-13T06:02:51;13.30;;;3.30;;
16320;SDS011;8269;50.990;4.494;2023-07-13T06:05:17;13.18;;;3.70;;
16320;SDS011;8269;50.990;4.494;2023-07-13T06:07:43;11.07;;;3.13;;
16320;SDS011;8269;50.990;4.494;2023-07-13T06:10:09;10.85;;;3.72;;
16320;SDS011;8269;50.990;4.494;2023-07-13T06:12:35;15.93;;;3.38;;
16320;SDS011;8269;50.990;4.494;2023-07-13T06:15:02;11.63;;;3.65;;
16320;SDS011;8269;50.990;4.494;2023-07-13T06:17:28;12.82;;;3.30;;
16320;SDS011;8269;50.990;4.494;2023-07-13T06:19:54;15.40;;;3.45;;
16320;SDS011;8269;50.990;4.494;2023-07-13T06:22:20;10.60;;;3.30;;
16320;SDS011;8269;50.990;4.494;2023-07-13T06:24:46;10.00;;;3.30;;
16320;SDS011;8269;50.990;4.494;2023-07-13T06:27:12;8.82;;;3.38;;
16320;SDS011;8269;50.990;4.494;2023-07-13T06:29:38;8.77;;;3.35;;
16320;SDS011;8269;50.990;4.494;2023-07-13T06:32:05;11.38;;;3.75;;
16320;SDS011;8269;50.990;4.494;2023-07-13T06:34:31;9.93;;;3.35;;
16320;SDS011;8269;50.990;4.494;2023-07-13T06:36:57;11.20;;;3.75;;
16320;SDS011;8269;50.990;4.494;2023-07-13T06:39:23;11.05;;;3.08;;
16320;SDS011;8269;50.990;4.494;2023-07-13T06:41:49;9.07;;;3.20;;
16320;SDS011;8269;50.990;4.494;2023-07-13T06:44:15;11.80;;;3.50;;
16320;SDS011;8269;50.990;4.494;2023-07-13T06:46:41;8.20;;;3.05;;
16320;SDS011;8269;50.990;4.494;2023-07-13T06:49:08;9.45;;;3.13;;
16320;SDS011;8269;50.990;4.494;2023-07-13T06:51:34;13.73;;;3.22;;
16320;SDS011;8269;50.990;4.494;2023-07-13T06:54:00;13.80;;;3.60;;
16320;SDS011;8269;50.990;4.494;2023-07-13T06:56:26;10.30;;;3.60;;
16320;SDS011;8269;50.990;4.494;2023-07-13T06:58:52;11.68;;;3.55;;
16320;SDS011;8269;50.990;4.494;2023-07-13T07:01:18;14.05;;;3.80;;
16320;SDS011;8269;50.990;4.494;2023-07-13T07:03:44;9.38;;;3.28;;
16320;SDS011;8269;50.990;4.494;2023-07-13T07:06:13;10.98;;;3.22;;
16320;SDS011;8269;50.990;4.494;2023-07-13T07:08:40;9.80;;;3.13;;
16320;SDS011;8269;50.990;4.494;2023-07-13T07:11:08;13.35;;;4.00;;
16320;SDS011;8269;50.990;4.494;2023-07-13T07:13:34;12.38;;;3.65;;
16320;SDS011;8269;50.990;4.494;2023-07-13T07:16:00;10.63;;;3.67;;
16320;SDS011;8269;50.990;4.494;2023-07-13T07:18:26;10.15;;;3.33;;
16320;SDS011;8269;50.990;4.494;2023-07-13T07:20:52;12.13;;;4.55;;
16320;SDS011;8269;50.990;4.494;2023-07-13T07:23:18;10.35;;;3.40;;
16320;SDS011;8269;50.990;4.494;2023-07-13T07:25:44;12.63;;;3.42;;
16320;SDS011;8269;50.990;4.494;2023-07-13T07:28:11;9.18;;;3.33;;
16320;SDS011;8269;50.990;4.494;2023-07-13T07:30:37;12.68;;;3.25;;
16320;SDS011;8269;50.990;4.494;2023-07-13T07:33:03;10.43;;;3.60;;
16320;SDS011;8269;50.990;4.494;2023-07-13T07:35:29;11.43;;;3.50;;
16320;SDS011;8269;50.990;4.494;2023-07-13T07:37:55;10.45;;;3.38;;
16320;SDS011;8269;50.990;4.494;2023-07-13T07:40:21;9.50;;;3.10;;
16320;SDS011;8269;50.990;4.494;2023-07-13T07:42:47;12.55;;;3.65;;
16320;SDS011;8269;50.990;4.494;2023-07-13T07:45:13;10.05;;;3.50;;
16320;SDS011;8269;50.990;4.494;2023-07-13T07:47:40;11.73;;;3.50;;
16320;SDS011;8269;50.990;4.494;2023-07-13T07:50:06;9.75;;;3.25;;
16320;SDS011;8269;50.990;4.494;2023-07-13T07:52:32;10.82;;;3.13;;
16320;SDS011;8269;50.990;4.494;2023-07-13T07:54:58;13.05;;;3.30;;
16320;SDS011;8269;50.990;4.494;2023-07-13T07:57:24;9.27;;;3.00;;
16320;SDS011;8269;50.990;4.494;2023-07-13T07:59:50;12.40;;;3.30;;
16320;SDS011;8269;50.990;4.494;2023-07-13T08:02:16;9.52;;;2.90;;
16320;SDS011;8269;50.990;4.494;2023-07-13T08:04:42;9.30;;;3.60;;
16320;SDS011;8269;50.990;4.494;2023-07-13T08:07:08;9.73;;;3.00;;
16320;SDS011;8269;50.990;4.494;2023-07-13T08:09:34;9.98;;;2.88;;
16320;SDS011;8269;50.990;4.494;2023-07-13T08:12:01;6.80;;;2.72;;
16320;SDS011;8269;50.990;4.494;2023-07-13T08:14:27;10.30;;;3.20;;
16320;SDS011;8269;50.990;4.494;2023-07-13T08:16:53;12.05;;;2.97;;
16320;SDS011;8269;50.990;4.494;2023-07-13T08:19:19;8.48;;;2.95;;
16320;SDS011;8269;50.990;4.494;2023-07-13T08:21:45;11.23;;;3.22;;
16320;SDS011;8269;50.990;4.494;2023-07-13T08:24:13;6.25;;;2.30;;
16320;SDS011;8269;50.990;4.494;2023-07-13T08:26:39;7.20;;;3.17;;
16320;SDS011;8269;50.990;4.494;2023-07-13T08:29:05;8.05;;;2.90;;
16320;SDS011;8269;50.990;4.494;2023-07-13T08:31:31;9.23;;;3.40;;
16320;SDS011;8269;50.990;4.494;2023-07-13T08:33:57;10.52;;;3.67;;
16320;SDS011;8269;50.990;4.494;2023-07-13T08:36:24;11.27;;;3.05;;
16320;SDS011;8269;50.990;4.494;2023-07-13T08:38:51;8.60;;;3.10;;
16320;SDS011;8269;50.990;4.494;2023-07-13T08:41:17;9.00;;;3.05;;
16320;SDS011;8269;50.990;4.494;2023-07-13T08:43:45;8.43;;;2.75;;
16320;SDS011;8269;50.990;4.494;2023-07-13T08:46:32;9.20;;;3.13;;
16320;SDS011;8269;50.990;4.494;2023-07-13T08:49:03;7.28;;;2.50;;
16320;SDS011;8269;50.990;4.494;2023-07-13T08:53:58;9.45;;;2.67;;
16320;SDS011;8269;50.990;4.494;2023-07-13T08:56:27;8.50;;;2.55;;
16320;SDS011;8269;50.990;4.494;2023-07-13T08:59:13;8.30;;;2.50;;
16320;SDS011;8269;50.990;4.494;2023-07-13T09:04:19;8.25;;;2.80;;
16320;SDS011;8269;50.990;4.494;2023-07-13T09:11:45;8.18;;;3.08;;
16320;SDS011;8269;50.990;4.494;2023-07-13T09:14:28;6.65;;;2.60;;
16320;SDS011;8269;50.990;4.494;2023-07-13T09:16:56;9.13;;;2.50;;
16320;SDS011;8269;50.990;4.494;2023-07-13T09:19:30;8.40;;;2.33;;
16320;SDS011;8269;50.990;4.494;2023-07-13T09:21:58;9.00;;;2.65;;
16320;SDS011;8269;50.990;4.494;2023-07-13T09:24:29;6.72;;;2.50;;
16320;SDS011;8269;50.990;4.494;2023-07-13T09:26:58;8.20;;;2.85;;
16320;SDS011;8269;50.990;4.494;2023-07-13T09:29:34;6.07;;;2.30;;
16320;SDS011;8269;50.990;4.494;2023-07-13T09:32:04;5.97;;;2.45;;
16320;SDS011;8269;50.990;4.494;2023-07-13T09:34:32;9.43;;;3.00;;
16320;SDS011;8269;50.990;4.494;2023-07-13T09:36:58;8.73;;;2.65;;
16320;SDS011;8269;50.990;4.494;2023-07-13T09:39:28;7.60;;;2.67;;
16320;SDS011;8269;50.990;4.494;2023-07-13T09:44:31;7.53;;;2.25;;
16320;SDS011;8269;50.990;4.494;2023-07-13T09:47:00;8.50;;;2.63;;
16320;SDS011;8269;50.990;4.494;2023-07-13T09:49:27;6.93;;;2.20;;
16320;SDS011;8269;50.990;4.494;2023-07-13T09:52:01;6.82;;;2.00;;
16320;SDS011;8269;50.990;4.494;2023-07-13T09:54:28;5.30;;;2.17;;
16320;SDS011;8269;50.990;4.494;2023-07-13T09:56:57;5.03;;;2.05;;
16320;SDS011;8269;50.990;4.494;2023-07-13T09:59:26;11.20;;;2.55;;
16320;SDS011;8269;50.990;4.494;2023-07-13T10:01:53;8.45;;;2.30;;
16320;SDS011;8269;50.990;4.494;2023-07-13T10:04:20;6.95;;;2.47;;
16320;SDS011;8269;50.990;4.494;2023-07-13T10:06:46;9.38;;;2.50;;
16320;SDS011;8269;50.990;4.494;2023-07-13T10:09:16;8.43;;;2.50;;
16320;SDS011;8269;50.990;4.494;2023-07-13T10:11:45;11.07;;;2.33;;
16320;SDS011;8269;50.990;4.494;2023-07-13T10:14:15;6.72;;;2.38;;
16320;SDS011;8269;50.990;4.494;2023-07-13T10:16:42;4.78;;;2.15;;
16320;SDS011;8269;50.990;4.494;2023-07-13T10:19:19;6.53;;;2.30;;
16320;SDS011;8269;50.990;4.494;2023-07-13T10:24:24;11.35;;;2.83;;
16320;SDS011;8269;50.990;4.494;2023-07-13T10:29:29;6.95;;;2.35;;
16320;SDS011;8269;50.990;4.494;2023-07-13T10:31:58;6.55;;;2.60;;
16320;SDS011;8269;50.990;4.494;2023-07-13T10:34:25;7.18;;;2.75;;
16320;SDS011;8269;50.990;4.494;2023-07-13T10:36:51;5.38;;;2.22;;
16320;SDS011;8269;50.990;4.494;2023-07-13T10:39:26;6.50;;;2.40;;
16320;SDS011;8269;50.990;4.494;2023-07-13T10:41:58;5.68;;;2.35;;
16320;SDS011;8269;50.990;4.494;2023-07-13T10:44:26;6.00;;;2.28;;
16320;SDS011;8269;50.990;4.494;2023-07-13T10:46:54;7.28;;;2.50;;
16320;SDS011;8269;50.990;4.494;2023-07-13T10:49:21;5.93;;;2.17;;
16320;SDS011;8269;50.990;4.494;2023-07-13T10:51:47;7.60;;;2.70;;
16320;SDS011;8269;50.990;4.494;2023-07-13T10:54:18;7.63;;;2.25;;
16320;SDS011;8269;50.990;4.494;2023-07-13T10:56:50;5.57;;;2.30;;
16320;SDS011;8269;50.990;4.494;2023-07-13T10:59:18;7.43;;;2.33;;
16320;SDS011;8269;50.990;4.494;2023-07-13T11:01:52;9.77;;;2.30;;
16320;SDS011;8269;50.990;4.494;2023-07-13T11:04:21;5.25;;;2.20;;
16320;SDS011;8269;50.990;4.494;2023-07-13T11:06:50;5.05;;;2.08;;
16320;SDS011;8269;50.990;4.494;2023-07-13T11:19:53;4.72;;;2.40;;
16320;SDS011;8269;50.990;4.494;2023-07-13T11:22:41;8.52;;;2.60;;
16320;SDS011;8269;50.990;4.494;2023-07-13T11:25:25;5.82;;;2.53;;
16320;SDS011;8269;50.990;4.494;2023-07-13T11:27:52;7.10;;;2.50;;
16320;SDS011;8269;50.990;4.494;2023-07-13T11:35:53;7.40;;;2.72;;
16320;SDS011;8269;50.990;4.494;2023-07-13T11:40:53;3.95;;;2.00;;
16320;SDS011;8269;50.990;4.494;2023-07-13T11:43:20;8.50;;;2.10;;
16320;SDS011;8269;50.990;4.494;2023-07-13T11:45:48;6.68;;;2.20;;
16320;SDS011;8269;50.990;4.494;2023-07-13T11:48:19;6.93;;;2.22;;
16320;SDS011;8269;50.990;4.494;2023-07-13T11:51:10;6.80;;;2.35;;
16320;SDS011;8269;50.990;4.494;2023-07-13T11:53:39;5.95;;;2.40;;
16320;SDS011;8269;50.990;4.494;2023-07-13T11:56:06;6.82;;;2.20;;
16320;SDS011;8269;50.990;4.494;2023-07-13T11:58:32;6.95;;;2.50;;
16320;SDS011;8269;50.990;4.494;2023-07-13T12:00:59;7.05;;;2.67;;
16320;SDS011;8269;50.990;4.494;2023-07-13T12:03:29;7.65;;;2.72;;
16320;SDS011;8269;50.990;4.494;2023-07-13T12:05:56;4.95;;;2.58;;
16320;SDS011;8269;50.990;4.494;2023-07-13T12:08:22;5.10;;;2.35;;
16320;SDS011;8269;50.990;4.494;2023-07-13T12:10:55;4.95;;;2.15;;
16320;SDS011;8269;50.990;4.494;2023-07-13T12:13:21;4.95;;;1.90;;
16320;SDS011;8269;50.990;4.494;2023-07-13T12:15:47;7.45;;;2.85;;
16320;SDS011;8269;50.990;4.494;2023-07-13T12:18:15;5.47;;;2.50;;
16320;SDS011;8269;50.990;4.494;2023-07-13T12:20:41;5.15;;;2.53;;
16320;SDS011;8269;50.990;4.494;2023-07-13T12:23:27;5.70;;;2.20;;
16320;SDS011;8269;50.990;4.494;2023-07-13T12:25:54;8.07;;;2.80;;
16320;SDS011;8269;50.990;4.494;2023-07-13T12:28:21;9.48;;;2.78;;
16320;SDS011;8269;50.990;4.494;2023-07-13T12:30:48;5.30;;;2.80;;
16320;SDS011;8269;50.990;4.494;2023-07-13T12:33:15;5.82;;;2.60;;
16320;SDS011;8269;50.990;4.494;2023-07-13T12:35:45;6.40;;;2.78;;
16320;SDS011;8269;50.990;4.494;2023-07-13T12:38:12;6.00;;;2.78;;
16320;SDS011;8269;50.990;4.494;2023-07-13T12:40:38;5.60;;;2.63;;
16320;SDS011;8269;50.990;4.494;2023-07-13T12:43:09;7.90;;;3.10;;
16320;SDS011;8269;50.990;4.494;2023-07-13T12:45:36;8.13;;;3.00;;
16320;SDS011;8269;50.990;4.494;2023-07-13T12:48:04;9.60;;;3.17;;
16320;SDS011;8269;50.990;4.494;2023-07-13T12:50:36;8.63;;;3.00;;
16320;SDS011;8269;50.990;4.494;2023-07-13T12:53:04;6.75;;;3.08;;
16320;SDS011;8269;50.990;4.494;2023-07-13T12:55:32;5.53;;;2.85;;
16320;SDS011;8269;50.990;4.494;2023-07-13T12:58:06;5.22;;;2.72;;
16320;SDS011;8269;50.990;4.494;2023-07-13T13:00:33;5.05;;;2.17;;
16320;SDS011;8269;50.990;4.494;2023-07-13T13:03:06;4.20;;;2.42;;
16320;SDS011;8269;50.990;4.494;2023-07-13T13:05:33;3.95;;;1.98;;
16320;SDS011;8269;50.990;4.494;2023-07-13T13:07:59;4.72;;;2.03;;
16320;SDS011;8269;50.990;4.494;2023-07-13T13:10:25;6.22;;;2.60;;
16320;SDS011;8269;50.990;4.494;2023-07-13T13:12:51;4.68;;;2.22;;
16320;SDS011;8269;50.990;4.494;2023-07-13T13:15:18;5.55;;;2.20;;
16320;SDS011;8269;50.990;4.494;2023-07-13T13:17:44;4.20;;;2.30;;
16320;SDS011;8269;50.990;4.494;2023-07-13T13:20:18;3.53;;;2.03;;
16320;SDS011;8269;50.990;4.494;2023-07-13T13:22:44;6.05;;;2.20;;
16320;SDS011;8269;50.990;4.494;2023-07-13T13:25:11;3.65;;;2.30;;
16320;SDS011;8269;50.990;4.494;2023-07-13T13:27:37;6.05;;;2.33;;
16320;SDS011;8269;50.990;4.494;2023-07-13T13:30:09;6.50;;;2.58;;
16320;SDS011;8269;50.990;4.494;2023-07-13T13:32:37;4.78;;;2.40;;
16320;SDS011;8269;50.990;4.494;2023-07-13T13:35:03;3.53;;;2.30;;
16320;SDS011;8269;50.990;4.494;2023-07-13T13:37:31;4.82;;;2.45;;
16320;SDS011;8269;50.990;4.494;2023-07-13T13:39:57;5.38;;;2.40;;
16320;SDS011;8269;50.990;4.494;2023-07-13T13:42:23;6.70;;;2.60;;
16320;SDS011;8269;50.990;4.494;2023-07-13T13:44:51;4.53;;;2.30;;
16320;SDS011;8269;50.990;4.494;2023-07-13T13:47:36;7.03;;;2.88;;
16320;SDS011;8269;50.990;4.494;2023-07-13T13:52:40;4.88;;;2.20;;
16320;SDS011;8269;50.990;4.494;2023-07-13T13:55:16;5.47;;;2.20;;
16320;SDS011;8269;50.990;4.494;2023-07-13T13:57:44;5.70;;;2.35;;
16320;SDS011;8269;50.990;4.494;2023-07-13T14:00:11;2.78;;;2.00;;
16320;SDS011;8269;50.990;4.494;2023-07-13T14:02:39;6.40;;;2.30;;
16320;SDS011;8269;50.990;4.494;2023-07-13T14:05:06;6.18;;;2.28;;
16320;SDS011;8269;50.990;4.494;2023-07-13T14:07:35;7.65;;;2.33;;
16320;SDS011;8269;50.990;4.494;2023-07-13T14:10:01;4.85;;;2.00;;
16320;SDS011;8269;50.990;4.494;2023-07-13T14:12:28;5.88;;;2.25;;
16320;SDS011;8269;50.990;4.494;2023-07-13T14:14:55;8.82;;;2.33;;
16320;SDS011;8269;50.990;4.494;2023-07-13T14:17:24;5.90;;;2.10;;
16320;SDS011;8269;50.990;4.494;2023-07-13T14:19:52;5.88;;;2.00;;
16320;SDS011;8269;50.990;4.494;2023-07-13T14:22:25;5.50;;;1.90;;
16320;SDS011;8269;50.990;4.494;2023-07-13T14:24:55;5.50;;;2.10;;
16320;SDS011;8269;50.990;4.494;2023-07-13T14:27:25;4.43;;;1.90;;
16320;SDS011;8269;50.990;4.494;2023-07-13T14:29:51;4.75;;;2.17;;
16320;SDS011;8269;50.990;4.494;2023-07-13T14:32:17;3.90;;;1.80;;
16320;SDS011;8269;50.990;4.494;2023-07-13T14:34:43;4.70;;;2.03;;
16320;SDS011;8269;50.990;4.494;2023-07-13T14:37:13;6.68;;;2.10;;
16320;SDS011;8269;50.990;4.494;2023-07-13T14:39:42;4.57;;;1.90;;
16320;SDS011;8269;50.990;4.494;2023-07-13T14:42:08;5.57;;;1.88;;
16320;SDS011;8269;50.990;4.494;2023-07-13T14:44:34;4.78;;;2.00;;
16320;SDS011;8269;50.990;4.494;2023-07-13T14:47:02;5.28;;;2.20;;
16320;SDS011;8269;50.990;4.494;2023-07-13T14:49:39;5.15;;;2.28;;
16320;SDS011;8269;50.990;4.494;2023-07-13T14:54:35;6.75;;;2.50;;
16320;SDS011;8269;50.990;4.494;2023-07-13T14:57:08;4.70;;;2.03;;
16320;SDS011;8269;50.990;4.494;2023-07-13T14:59:34;4.72;;;1.88;;
16320;SDS011;8269;50.990;4.494;2023-07-13T15:02:00;7.25;;;2.67;;
16320;SDS011;8269;50.990;4.494;2023-07-13T15:04:27;5.47;;;2.55;;
16320;SDS011;8269;50.990;4.494;2023-07-13T15:06:57;6.13;;;2.30;;
16320;SDS011;8269;50.990;4.494;2023-07-13T15:09:24;7.32;;;2.50;;
16320;SDS011;8269;50.990;4.494;2023-07-13T15:11:57;5.45;;;2.38;;
16320;SDS011;8269;50.990;4.494;2023-07-13T15:14:24;5.47;;;2.00;;
16320;SDS011;8269;50.990;4.494;2023-07-13T15:16:51;4.20;;;1.85;;
16320;SDS011;8269;50.990;4.494;2023-07-13T15:19:17;4.57;;;2.13;;
16320;SDS011;8269;50.990;4.494;2023-07-13T15:21:44;3.05;;;1.95;;
16320;SDS011;8269;50.990;4.494;2023-07-13T15:24:10;5.07;;;2.05;;
16320;SDS011;8269;50.990;4.494;2023-07-13T15:26:37;5.20;;;2.40;;
16320;SDS011;8269;50.990;4.494;2023-07-13T15:29:03;6.47;;;2.33;;
16320;SDS011;8269;50.990;4.494;2023-07-13T15:31:29;6.10;;;2.03;;
16320;SDS011;8269;50.990;4.494;2023-07-13T15:33:57;4.85;;;1.92;;
16320;SDS011;8269;50.990;4.494;2023-07-13T15:36:24;6.45;;;2.17;;
16320;SDS011;8269;50.990;4.494;2023-07-13T15:38:54;4.20;;;2.10;;
16320;SDS011;8269;50.990;4.494;2023-07-13T15:41:22;4.70;;;2.00;;
16320;SDS011;8269;50.990;4.494;2023-07-13T15:43:49;6.65;;;2.10;;
16320;SDS011;8269;50.990;4.494;2023-07-13T15:46:17;4.60;;;2.05;;